createdAt,value
2019-06-07T00:00:38.029Z,18.35
2019-06-07T00:05:30.146Z,18.23
2019-06-07T00:10:37.291Z,18.15
2019-06-07T00:15:42.520Z,18.06
2019-06-07T00:20:47.603Z,18.02
2019-06-07T00:25:52.716Z,17.88
2019-06-07T00:30:57.927Z,17.81
2019-06-07T00:36:03.381Z,17.54
2019-06-07T00:41:09.967Z,17.50
2019-06-07T00:46:16.571Z,17.56
2019-06-07T00:51:25.241Z,17.58
2019-06-07T00:56:30.573Z,17.41
2019-06-07T01:01:36.341Z,17.26
2019-06-07T01:06:41.385Z,17.08
2019-06-07T01:11:46.702Z,17.21
2019-06-07T01:17:01.261Z,17.18
2019-06-07T01:21:59.501Z,17.13
2019-06-07T01:27:05.504Z,17.16
2019-06-07T01:32:11.805Z,17.13
2019-06-07T01:37:20.040Z,17.15
2019-06-07T01:42:28.886Z,17.20
2019-06-07T01:47:32.363Z,17.16
2019-06-07T01:52:39.369Z,17.02
2019-06-07T01:57:48.490Z,16.96
2019-06-07T02:02:52.219Z,16.85
2019-06-07T02:07:57.293Z,16.70
2019-06-07T02:13:02.820Z,16.64
2019-06-07T02:18:11.935Z,16.52
2019-06-07T02:23:17.236Z,16.57
2019-06-07T02:28:38.342Z,16.60
2019-06-07T02:33:35.107Z,16.58
2019-06-07T02:38:38.151Z,16.50
2019-06-07T02:43:43.204Z,16.47
2019-06-07T02:48:48.732Z,16.46
2019-06-07T02:53:57.187Z,16.52
2019-06-07T02:59:02.730Z,16.37
2019-06-07T03:04:07.828Z,16.36
2019-06-07T03:09:12.906Z,16.38
2019-06-07T03:14:19.269Z,16.48
2019-06-07T03:19:37.349Z,16.58
2019-06-07T03:24:45.964Z,16.59
2019-06-07T03:29:53.410Z,16.63
2019-06-07T03:34:58.425Z,16.63
2019-06-07T03:40:03.593Z,16.61
2019-06-07T03:45:08.661Z,16.58
2019-06-07T03:50:14.183Z,16.50
2019-06-07T03:55:19.331Z,16.55
2019-06-07T04:00:24.588Z,16.63
2019-06-07T04:05:32.860Z,16.62
2019-06-07T04:10:55.753Z,16.64
2019-06-07T04:15:44.378Z,16.60
2019-06-07T04:20:49.454Z,16.54
2019-06-07T04:25:54.534Z,16.56
2019-06-07T04:30:59.625Z,16.53
2019-06-07T04:36:04.942Z,16.54
2019-06-07T04:41:16.665Z,16.50
2019-06-07T04:46:25.312Z,16.54
2019-06-07T04:51:37.214Z,16.53
2019-06-07T04:56:44.700Z,16.57
2019-06-07T05:01:49.975Z,16.66
2019-06-07T05:06:55.743Z,16.63
2019-06-07T05:12:00.895Z,16.64
2019-06-07T05:17:06.080Z,16.65
2019-06-07T05:22:12.205Z,16.77
2019-06-07T05:27:17.335Z,16.89
2019-06-07T05:32:22.552Z,17.03
2019-06-07T05:37:33.513Z,17.03
2019-06-07T05:42:41.213Z,17.12
2019-06-07T05:47:50.638Z,17.26
2019-06-07T05:52:54.013Z,17.41
2019-06-07T05:57:59.126Z,17.50
2019-06-07T06:03:06.055Z,17.58
2019-06-07T06:08:12.144Z,17.65
2019-06-07T06:13:17.567Z,17.73
2019-06-07T06:18:23.682Z,17.89
2019-06-07T06:23:28.764Z,18.07
2019-06-07T06:28:33.899Z,18.18
2019-06-07T06:33:39.646Z,18.15
2019-06-07T06:38:47.138Z,18.23
2019-06-07T06:43:52.824Z,18.32
2019-06-07T06:48:57.972Z,18.34
2019-06-07T06:54:03.059Z,18.15
2019-06-07T07:04:15.025Z,18.16
2019-06-07T07:09:20.210Z,18.20
2019-06-07T07:14:25.346Z,18.36
2019-06-07T07:19:31.058Z,18.52
2019-06-07T07:24:36.104Z,18.62
2019-06-07T07:29:43.696Z,18.71
2019-06-07T07:34:51.798Z,18.74
2019-06-07T07:40:08.070Z,18.83
2019-06-07T07:45:01.901Z,18.76
2019-06-07T07:50:08.179Z,18.76
2019-06-07T07:55:13.376Z,18.83
2019-06-07T08:00:50.025Z,18.96
2019-06-07T08:05:41.879Z,19.08
2019-06-07T08:10:35.181Z,19.26
2019-06-07T08:15:40.290Z,19.25
2019-06-07T08:21:04.903Z,19.18
2019-06-07T08:25:56.354Z,19.29
2019-06-07T08:31:06.292Z,19.35
2019-06-07T08:36:19.631Z,19.48
2019-06-07T08:41:13.023Z,19.43
2019-06-07T08:46:18.075Z,19.63
2019-06-07T08:51:23.195Z,19.91
2019-06-07T08:56:28.372Z,20.07
2019-06-07T09:01:33.413Z,20.15
2019-06-07T09:07:02.503Z,20.19
2019-06-07T09:11:45.381Z,20.31
2019-06-07T09:16:58.769Z,20.28
2019-06-07T09:22:10.243Z,20.17
2019-06-07T09:27:10.920Z,20.25
2019-06-07T09:32:18.546Z,20.43
2019-06-07T09:38:03.641Z,20.63
2019-06-07T09:42:32.077Z,20.70
2019-06-07T09:47:37.235Z,20.84
2019-06-07T09:52:57.882Z,21.10
2019-06-07T09:57:49.607Z,21.22
2019-06-07T10:02:54.747Z,21.33
2019-06-07T10:08:14.532Z,21.51
2019-06-07T10:13:08.442Z,21.71
2019-06-07T10:18:13.359Z,21.97
2019-06-07T10:23:18.448Z,22.21
2019-06-07T10:28:24.353Z,22.34
2019-06-07T10:33:29.592Z,22.10
2019-06-07T10:38:34.902Z,21.73
2019-06-07T10:43:39.989Z,21.41
2019-06-07T10:48:45.096Z,21.22
2019-06-07T10:53:50.156Z,21.19
2019-06-07T10:58:55.350Z,21.16
2019-06-07T11:04:00.531Z,21.20
2019-06-07T11:09:07.918Z,21.46
2019-06-07T11:14:14.630Z,21.66
2019-06-07T11:19:19.933Z,21.97
2019-06-07T11:24:25.021Z,21.90
2019-06-07T11:29:30.133Z,21.79
2019-06-07T11:34:36.312Z,21.87
2019-06-07T11:39:41.507Z,22.34
2019-06-07T11:44:56.450Z,23.16
2019-06-07T11:49:53.492Z,23.73
2019-06-07T11:54:58.600Z,24.23
2019-06-07T12:00:03.855Z,24.20
2019-06-07T12:05:10.380Z,24.38
2019-06-07T12:10:20.476Z,24.23
2019-06-07T12:15:24.101Z,24.33
2019-06-07T12:20:29.205Z,24.07
2019-06-07T12:25:34.675Z,24.65
2019-06-07T12:30:41.220Z,25.30
2019-06-07T12:35:46.810Z,25.82
2019-06-07T12:40:57.724Z,26.07
2019-06-07T12:45:59.127Z,26.30
2019-06-07T12:51:07.702Z,26.30
2019-06-07T12:56:15.583Z,26.42
2019-06-07T13:01:21.437Z,26.20
2019-06-07T13:06:28.068Z,26.06
2019-06-07T13:11:34.661Z,25.84
2019-06-07T13:16:41.327Z,25.34
2019-06-07T13:21:46.793Z,24.45
2019-06-07T13:26:54.544Z,24.45
2019-06-07T13:32:01.809Z,24.49
2019-06-07T13:37:06.913Z,25.21
2019-06-07T13:42:12.670Z,25.21
2019-06-07T13:47:18.948Z,25.82
2019-06-07T13:52:24.527Z,26.44
2019-06-07T13:57:29.630Z,26.73
2019-06-07T14:02:35.039Z,27.02
2019-06-07T14:07:40.348Z,27.21
2019-06-07T14:12:45.469Z,27.05
2019-06-07T14:17:54.454Z,27.10
2019-06-07T14:22:59.522Z,27.03
2019-06-07T14:28:10.807Z,27.14
2019-06-07T14:33:11.919Z,27.12
2019-06-07T14:38:17.236Z,26.88
2019-06-07T14:43:23.298Z,26.85
2019-06-07T14:48:30.343Z,26.92
2019-06-07T14:53:37.769Z,26.93
2019-06-07T14:58:43.638Z,26.94
2019-06-07T15:03:50.853Z,27.04
2019-06-07T15:09:02.230Z,27.00
2019-06-07T15:14:09.626Z,26.88
2019-06-07T15:19:14.772Z,26.78
2019-06-07T15:24:20.065Z,26.57
2019-06-07T15:29:25.742Z,26.20
2019-06-07T15:34:32.289Z,25.81
2019-06-07T15:39:38.792Z,25.63
2019-06-07T15:44:44.179Z,25.45
2019-06-07T15:49:49.523Z,25.19
2019-06-07T15:54:54.727Z,25.09
2019-06-07T16:00:00.242Z,25.08
2019-06-07T16:05:07.217Z,25.08
2019-06-07T16:10:12.770Z,25.02
2019-06-07T16:15:18.498Z,24.94
2019-06-07T16:20:23.867Z,24.95
2019-06-07T16:25:28.999Z,24.91
2019-06-07T16:30:34.334Z,24.87
2019-06-07T16:35:39.545Z,24.76
2019-06-07T16:40:44.737Z,24.65
2019-06-07T16:45:49.934Z,24.62
2019-06-07T16:50:55.013Z,24.57
2019-06-07T16:56:01.387Z,24.56
2019-06-07T17:01:08.627Z,24.57
2019-06-07T17:06:15.409Z,24.54
2019-06-07T17:11:20.689Z,24.56
2019-06-07T17:16:25.841Z,24.54
2019-06-07T17:21:30.877Z,24.53
2019-06-07T17:26:36.127Z,24.58
2019-06-07T17:31:44.755Z,24.63
2019-06-07T17:36:50.757Z,24.57
2019-06-07T17:42:02.161Z,24.65
2019-06-07T17:47:08.073Z,24.54
2019-06-07T17:52:13.807Z,24.49
2019-06-07T17:57:20.605Z,24.46
2019-06-07T18:02:25.715Z,24.39
2019-06-07T18:07:32.530Z,24.36
2019-06-07T18:12:37.669Z,24.32
2019-06-07T18:17:44.574Z,24.27
2019-06-07T18:22:51.251Z,24.22
2019-06-07T18:27:58.972Z,24.15
2019-06-07T18:33:04.469Z,24.11
2019-06-07T18:38:11.044Z,24.12
2019-06-07T18:43:20.736Z,24.03
2019-06-07T18:48:25.878Z,23.96
2019-06-07T18:53:31.765Z,23.91
2019-06-07T18:58:37.422Z,23.85
2019-06-07T19:03:42.624Z,23.85
2019-06-07T19:08:48.449Z,23.76
2019-06-07T19:13:55.030Z,23.73
2019-06-07T19:19:00.342Z,23.68
2019-06-07T19:24:05.746Z,23.65
2019-06-07T19:29:11.346Z,23.60
2019-06-07T19:34:16.544Z,23.58
2019-06-07T19:39:21.793Z,23.52
2019-06-07T19:44:27.032Z,23.45
2019-06-07T19:49:32.595Z,23.42
2019-06-07T19:54:38.268Z,23.38
2019-06-07T19:59:44.226Z,23.38
2019-06-07T20:04:49.460Z,23.36
2019-06-07T20:09:54.612Z,23.34
2019-06-07T20:15:24.594Z,23.27
2019-06-07T20:20:08.839Z,23.23
2019-06-07T20:25:14.735Z,23.14
2019-06-07T20:30:20.236Z,23.07
2019-06-07T20:35:25.287Z,23.03
2019-06-07T20:40:30.504Z,22.95
2019-06-07T20:45:35.609Z,22.95
2019-06-07T20:50:41.824Z,22.90
2019-06-07T20:55:46.938Z,22.84
2019-06-07T21:00:52.393Z,22.78
2019-06-07T21:05:57.502Z,22.72
2019-06-07T21:11:03.546Z,22.71
2019-06-07T21:16:10.281Z,22.71
2019-06-07T21:21:16.812Z,22.64
2019-06-07T21:26:21.946Z,22.59
2019-06-07T21:31:26.992Z,22.49
2019-06-07T21:36:33.020Z,22.42
2019-06-07T21:41:38.155Z,22.41
2019-06-07T21:46:43.260Z,22.38
2019-06-07T21:51:48.439Z,22.40
2019-06-07T21:56:53.850Z,22.33
2019-06-07T22:02:00.138Z,22.30
2019-06-07T22:07:05.449Z,22.30
2019-06-07T22:12:12.028Z,22.32
2019-06-07T22:17:17.286Z,22.30
2019-06-07T22:22:25.180Z,22.29
2019-06-07T22:27:33.516Z,22.30
2019-06-07T22:32:39.568Z,22.30
2019-06-07T22:37:44.633Z,22.35
2019-06-07T22:42:49.770Z,22.22
2019-06-07T22:47:54.822Z,21.95
2019-06-07T22:53:00.097Z,21.74
2019-06-07T22:58:05.700Z,21.31
2019-06-07T23:03:10.964Z,21.17
2019-06-07T23:08:16.951Z,21.12
2019-06-07T23:13:23.080Z,21.00
2019-06-07T23:18:28.318Z,20.95
2019-06-07T23:23:33.494Z,20.81
2019-06-07T23:28:58.008Z,20.74
2019-06-07T23:34:03.200Z,20.68
2019-06-07T23:39:09.395Z,20.57
2019-06-07T23:44:15.343Z,20.50
2019-06-07T23:49:22.405Z,20.43
2019-06-07T23:54:27.874Z,20.36
2019-06-07T23:59:32.981Z,20.29
